sensor_id;sensor_type;location;lat;lon;timestamp;pressure;altitude;pressure_sealevel;temperature;humidity
3654;BME280;70277;54.302;10.064;2024-02-16T00:02:03;100965.63;;;14.61;83.08
3654;BME280;70277;54.302;10.064;2024-02-16T00:04:29;100957.66;;;14.39;83.73
3654;BME280;70277;54.302;10.064;2024-02-16T00:06:57;100956.09;;;14.63;82.55
3654;BME280;70277;54.302;10.064;2024-02-16T00:09:23;100943.28;;;14.69;82.08
3654;BME280;70277;54.302;10.064;2024-02-16T00:11:50;100952.03;;;14.76;81.67
3654;BME280;70277;54.302;10.064;2024-02-16T00:14:19;100949.56;;;14.79;81.17
3654;BME280;70277;54.302;10.064;2024-02-16T00:16:47;100953.91;;;14.65;81.05
3654;BME280;70277;54.302;10.064;2024-02-16T00:19:14;100949.44;;;14.28;82.12
3654;BME280;70277;54.302;10.064;2024-02-16T00:21:41;100947.56;;;14.24;83.15
3654;BME280;70277;54.302;10.064;2024-02-16T00:24:09;100935.31;;;14.31;83.00
3654;BME280;70277;54.302;10.064;2024-02-16T00:26:37;100942.38;;;14.27;81.77
3654;BME280;70277;54.302;10.064;2024-02-16T00:29:05;100929.03;;;14.21;82.43
3654;BME280;70277;54.302;10.064;2024-02-16T00:31:32;100932.56;;;14.11;82.84
3654;BME280;70277;54.302;10.064;2024-02-16T00:33:59;100922.75;;;14.15;82.34
3654;BME280;70277;54.302;10.064;2024-02-16T00:36:26;100922.50;;;14.22;82.40
3654;BME280;70277;54.302;10.064;2024-02-16T00:38:54;100915.72;;;14.40;81.89
3654;BME280;70277;54.302;10.064;2024-02-16T00:41:21;100906.72;;;14.34;81.41
3654;BME280;70277;54.302;10.064;2024-02-16T00:43:49;100910.75;;;14.06;82.29
3654;BME280;70277;54.302;10.064;2024-02-16T00:46:17;100907.78;;;14.13;82.00
3654;BME280;70277;54.302;10.064;2024-02-16T00:48:43;100913.47;;;14.06;82.12
3654;BME280;70277;54.302;10.064;2024-02-16T00:51:10;100913.97;;;13.93;82.40
3654;BME280;70277;54.302;10.064;2024-02-16T00:53:36;100911.59;;;14.11;81.74
3654;BME280;70277;54.302;10.064;2024-02-16T00:56:03;100901.53;;;14.12;81.36
3654;BME280;70277;54.302;10.064;2024-02-16T00:58:30;100899.25;;;13.83;82.31
3654;BME280;70277;54.302;10.064;2024-02-16T01:00:56;100891.44;;;14.07;81.84
3654;BME280;70277;54.302;10.064;2024-02-16T01:03:23;100897.41;;;13.99;81.72
3654;BME280;70277;54.302;10.064;2024-02-16T01:05:50;100898.75;;;13.92;81.77
3654;BME280;70277;54.302;10.064;2024-02-16T01:08:16;100902.41;;;13.60;82.56
3654;BME280;70277;54.302;10.064;2024-02-16T01:10:43;100895.38;;;13.64;83.16
3654;BME280;70277;54.302;10.064;2024-02-16T01:13:09;100892.13;;;13.67;83.09
3654;BME280;70277;54.302;10.064;2024-02-16T01:15:36;100896.56;;;13.88;82.68
3654;BME280;70277;54.302;10.064;2024-02-16T01:18:07;100891.59;;;13.75;82.43
3654;BME280;70277;54.302;10.064;2024-02-16T01:20:34;100888.81;;;13.60;83.04
3654;BME280;70277;54.302;10.064;2024-02-16T01:23:01;100895.28;;;13.43;84.41
3654;BME280;70277;54.302;10.064;2024-02-16T01:25:27;100891.91;;;13.79;82.89
3654;BME280;70277;54.302;10.064;2024-02-16T01:27:54;100878.84;;;13.81;82.67
3654;BME280;70277;54.302;10.064;2024-02-16T01:30:21;100881.47;;;13.55;82.87
3654;BME280;70277;54.302;10.064;2024-02-16T01:32:47;100884.50;;;13.69;82.86
3654;BME280;70277;54.302;10.064;2024-02-16T01:35:14;100872.69;;;13.38;83.67
3654;BME280;70277;54.302;10.064;2024-02-16T01:37:41;100878.97;;;13.43;83.84
3654;BME280;70277;54.302;10.064;2024-02-16T01:40:11;100880.41;;;13.61;83.10
3654;BME280;70277;54.302;10.064;2024-02-16T01:42:41;100871.28;;;13.25;84.45
3654;BME280;70277;54.302;10.064;2024-02-16T01:45:09;100875.66;;;13.36;83.85
3654;BME280;70277;54.302;10.064;2024-02-16T01:47:37;100870.41;;;13.25;84.31
3654;BME280;70277;54.302;10.064;2024-02-16T01:50:04;100863.78;;;13.53;83.41
3654;BME280;70277;54.302;10.064;2024-02-16T01:52:32;100863.41;;;13.34;83.55
3654;BME280;70277;54.302;10.064;2024-02-16T01:55:00;100857.06;;;13.18;83.85
3654;BME280;70277;54.302;10.064;2024-02-16T01:57:30;100860.47;;;12.98;85.01
3654;BME280;70277;54.302;10.064;2024-02-16T01:59:58;100858.16;;;13.22;84.27
3654;BME280;70277;54.302;10.064;2024-02-16T02:02:25;100855.97;;;13.14;84.75
3654;BME280;70277;54.302;10.064;2024-02-16T02:04:52;100847.84;;;13.24;84.48
3654;BME280;70277;54.302;10.064;2024-02-16T02:07:18;100835.56;;;13.11;84.24
3654;BME280;70277;54.302;10.064;2024-02-16T02:09:45;100823.47;;;13.39;83.52
3654;BME280;70277;54.302;10.064;2024-02-16T02:12:12;100816.44;;;13.43;82.73
3654;BME280;70277;54.302;10.064;2024-02-16T02:14:38;100817.50;;;13.32;83.36
3654;BME280;70277;54.302;10.064;2024-02-16T02:17:05;100812.69;;;13.60;82.08
3654;BME280;70277;54.302;10.064;2024-02-16T02:19:32;100821.69;;;13.13;82.87
3654;BME280;70277;54.302;10.064;2024-02-16T02:21:59;100804.47;;;13.34;82.70
3654;BME280;70277;54.302;10.064;2024-02-16T02:24:27;100797.38;;;13.28;82.64
3654;BME280;70277;54.302;10.064;2024-02-16T02:26:54;100803.41;;;13.51;81.46
3654;BME280;70277;54.302;10.064;2024-02-16T02:29:21;100809.69;;;13.04;83.21
3654;BME280;70277;54.302;10.064;2024-02-16T02:31:47;100813.34;;;12.72;84.35
3654;BME280;70277;54.302;10.064;2024-02-16T02:34:13;100809.97;;;13.02;83.30
3654;BME280;70277;54.302;10.064;2024-02-16T02:36:41;100801.09;;;13.22;82.53
3654;BME280;70277;54.302;10.064;2024-02-16T02:39:08;100787.50;;;13.17;82.59
3654;BME280;70277;54.302;10.064;2024-02-16T02:41:34;100788.84;;;13.14;81.97
3654;BME280;70277;54.302;10.064;2024-02-16T02:44:01;100780.00;;;13.34;81.56
3654;BME280;70277;54.302;10.064;2024-02-16T02:46:27;100765.69;;;13.07;82.34
3654;BME280;70277;54.302;10.064;2024-02-16T02:48:54;100757.56;;;13.07;82.33
3654;BME280;70277;54.302;10.064;2024-02-16T02:51:21;100754.88;;;13.22;81.54
3654;BME280;70277;54.302;10.064;2024-02-16T02:53:47;100754.63;;;13.24;82.07
3654;BME280;70277;54.302;10.064;2024-02-16T02:56:14;100750.75;;;12.99;82.12
3654;BME280;70277;54.302;10.064;2024-02-16T02:58:41;100751.63;;;13.15;81.99
3654;BME280;70277;54.302;10.064;2024-02-16T03:01:07;100748.91;;;13.15;82.04
3654;BME280;70277;54.302;10.064;2024-02-16T03:03:35;100746.16;;;13.10;82.44
3654;BME280;70277;54.302;10.064;2024-02-16T03:06:02;100755.16;;;13.20;82.12
3654;BME280;70277;54.302;10.064;2024-02-16T03:08:30;100740.09;;;12.87;82.73
3654;BME280;70277;54.302;10.064;2024-02-16T03:10:56;100743.72;;;13.08;81.98
3654;BME280;70277;54.302;10.064;2024-02-16T03:13:27;100744.50;;;13.04;82.49
3654;BME280;70277;54.302;10.064;2024-02-16T03:15:53;100742.41;;;12.68;83.54
3654;BME280;70277;54.302;10.064;2024-02-16T03:18:20;100747.63;;;12.75;82.67
3654;BME280;70277;54.302;10.064;2024-02-16T03:20:47;100749.91;;;12.93;82.86
3654;BME280;70277;54.302;10.064;2024-02-16T03:23:16;100747.66;;;12.80;82.65
3654;BME280;70277;54.302;10.064;2024-02-16T03:25:43;100748.22;;;12.82;83.05
3654;BME280;70277;54.302;10.064;2024-02-16T03:28:12;100754.38;;;12.67;83.02
3654;BME280;70277;54.302;10.064;2024-02-16T03:30:40;100753.06;;;12.80;83.02
3654;BME280;70277;54.302;10.064;2024-02-16T03:33:07;100741.69;;;12.78;83.66
3654;BME280;70277;54.302;10.064;2024-02-16T03:35:35;100743.31;;;12.79;82.86
3654;BME280;70277;54.302;10.064;2024-02-16T03:38:06;100740.50;;;12.64;83.14
3654;BME280;70277;54.302;10.064;2024-02-16T03:40:32;100742.28;;;12.43;84.15
3654;BME280;70277;54.302;10.064;2024-02-16T03:43:00;100735.16;;;12.79;82.74
3654;BME280;70277;54.302;10.064;2024-02-16T03:45:26;100723.47;;;12.79;82.55
3654;BME280;70277;54.302;10.064;2024-02-16T03:47:56;100733.63;;;12.98;81.97
3654;BME280;70277;54.302;10.064;2024-02-16T03:50:22;100731.03;;;12.71;82.91
3654;BME280;70277;54.302;10.064;2024-02-16T03:52:49;100737.84;;;12.74;83.60
3654;BME280;70277;54.302;10.064;2024-02-16T03:55:16;100737.28;;;12.67;83.28
3654;BME280;70277;54.302;10.064;2024-02-16T03:57:42;100736.69;;;12.65;83.23
3654;BME280;70277;54.302;10.064;2024-02-16T04:00:09;100742.94;;;12.65;83.09
3654;BME280;70277;54.302;10.064;2024-02-16T04:02:36;100736.53;;;12.39;83.70
3654;BME280;70277;54.302;10.064;2024-02-16T04:05:03;100732.66;;;12.67;83.31
3654;BME280;70277;54.302;10.064;2024-02-16T04:07:30;100734.03;;;12.70;83.14
3654;BME280;70277;54.302;10.064;2024-02-16T04:09:57;100733.31;;;12.42;83.49
3654;BME280;70277;54.302;10.064;2024-02-16T04:12:23;100731.28;;;12.65;83.25
3654;BME280;70277;54.302;10.064;2024-02-16T04:14:50;100729.00;;;12.46;83.95
3654;BME280;70277;54.302;10.064;2024-02-16T04:17:17;100728.06;;;12.73;83.37
3654;BME280;70277;54.302;10.064;2024-02-16T04:19:43;100723.69;;;12.67;83.42
3654;BME280;70277;54.302;10.064;2024-02-16T04:22:10;100713.47;;;12.84;82.51
3654;BME280;70277;54.302;10.064;2024-02-16T04:24:37;100710.16;;;12.72;82.37
3654;BME280;70277;54.302;10.064;2024-02-16T04:27:04;100711.91;;;12.51;82.90
3654;BME280;70277;54.302;10.064;2024-02-16T04:29:34;100701.03;;;13.04;81.39
3654;BME280;70277;54.302;10.064;2024-02-16T04:32:00;100715.16;;;13.01;81.16
3654;BME280;70277;54.302;10.064;2024-02-16T04:34:27;100706.59;;;12.66;82.95
3654;BME280;70277;54.302;10.064;2024-02-16T04:36:55;100704.00;;;12.44;83.19
3654;BME280;70277;54.302;10.064;2024-02-16T04:39:21;100716.34;;;12.67;82.57
3654;BME280;70277;54.302;10.064;2024-02-16T04:41:48;100700.63;;;12.74;82.60
3654;BME280;70277;54.302;10.064;2024-02-16T04:44:14;100705.25;;;12.69;82.28
3654;BME280;70277;54.302;10.064;2024-02-16T04:46:41;100706.34;;;12.73;82.18
3654;BME280;70277;54.302;10.064;2024-02-16T04:49:07;100702.94;;;12.45;83.45
3654;BME280;70277;54.302;10.064;2024-02-16T04:51:34;100701.09;;;12.56;82.79
3654;BME280;70277;54.302;10.064;2024-02-16T04:54:01;100710.59;;;12.59;82.28
3654;BME280;70277;54.302;10.064;2024-02-16T04:56:29;100703.03;;;12.61;82.90
3654;BME280;70277;54.302;10.064;2024-02-16T04:58:55;100702.44;;;12.53;83.41
3654;BME280;70277;54.302;10.064;2024-02-16T05:01:22;100707.72;;;12.33;83.67
3654;BME280;70277;54.302;10.064;2024-02-16T05:03:49;100706.88;;;12.22;84.32
3654;BME280;70277;54.302;10.064;2024-02-16T05:06:16;100692.69;;;12.63;82.59
3654;BME280;70277;54.302;10.064;2024-02-16T05:08:43;100684.88;;;12.66;82.03
3654;BME280;70277;54.302;10.064;2024-02-16T05:11:09;100682.97;;;12.67;81.68
3654;BME280;70277;54.302;10.064;2024-02-16T05:13:36;100677.06;;;12.85;81.47
3654;BME280;70277;54.302;10.064;2024-02-16T05:16:08;100681.81;;;12.52;82.67
3654;BME280;70277;54.302;10.064;2024-02-16T05:18:34;100684.69;;;12.36;83.49
3654;BME280;70277;54.302;10.064;2024-02-16T05:21:01;100677.66;;;12.40;83.12
3654;BME280;70277;54.302;10.064;2024-02-16T05:23:28;100676.94;;;12.60;82.28
3654;BME280;70277;54.302;10.064;2024-02-16T05:25:54;100670.19;;;12.67;82.17
3654;BME280;70277;54.302;10.064;2024-02-16T05:28:20;100681.72;;;12.37;82.91
3654;BME280;70277;54.302;10.064;2024-02-16T05:30:47;100673.94;;;12.09;83.54
3654;BME280;70277;54.302;10.064;2024-02-16T05:33:13;100681.53;;;12.12;83.85
3654;BME280;70277;54.302;10.064;2024-02-16T05:35:40;100677.34;;;12.36;83.26
3654;BME280;70277;54.302;10.064;2024-02-16T05:38:07;100678.47;;;12.40;82.54
3654;BME280;70277;54.302;10.064;2024-02-16T05:40:47;100673.88;;;11.98;84.53
3654;BME280;70277;54.302;10.064;2024-02-16T05:43:23;100664.59;;;11.89;84.81
3654;BME280;70277;54.302;10.064;2024-02-16T05:45:50;100671.94;;;12.36;83.55
3654;BME280;70277;54.302;10.064;2024-02-16T05:48:16;100661.84;;;12.26;83.21
3654;BME280;70277;54.302;10.064;2024-02-16T05:50:43;100673.38;;;12.06;83.45
3654;BME280;70277;54.302;10.064;2024-02-16T05:53:10;100673.03;;;11.98;83.99
3654;BME280;70277;54.302;10.064;2024-02-16T05:55:37;100677.78;;;12.13;84.09
3654;BME280;70277;54.302;10.064;2024-02-16T05:58:03;100662.50;;;12.01;83.51
3654;BME280;70277;54.302;10.064;2024-02-16T06:00:34;100659.06;;;12.16;82.71
3654;BME280;70277;54.302;10.064;2024-02-16T06:03:03;100666.59;;;12.04;83.79
3654;BME280;70277;54.302;10.064;2024-02-16T06:05:30;100662.00;;;12.10;83.66
3654;BME280;70277;54.302;10.064;2024-02-16T06:07:56;100664.84;;;12.30;82.87
3654;BME280;70277;54.302;10.064;2024-02-16T06:10:24;100665.44;;;11.68;84.83
3654;BME280;70277;54.302;10.064;2024-02-16T06:12:50;100659.06;;;12.16;83.46
3654;BME280;70277;54.302;10.064;2024-02-16T06:15:17;100656.41;;;12.26;82.97
3654;BME280;70277;54.302;10.064;2024-02-16T06:17:43;100649.56;;;12.14;83.00
3654;BME280;70277;54.302;10.064;2024-02-16T06:20:10;100664.31;;;11.91;83.59
3654;BME280;70277;54.302;10.064;2024-02-16T06:22:37;100668.97;;;11.95;83.79
3654;BME280;70277;54.302;10.064;2024-02-16T06:25:04;100672.47;;;11.64;85.00
3654;BME280;70277;54.302;10.064;2024-02-16T06:27:32;100665.22;;;12.06;83.50
3654;BME280;70277;54.302;10.064;2024-02-16T06:29:59;100665.13;;;12.28;82.75
3654;BME280;70277;54.302;10.064;2024-02-16T06:32:26;100665.69;;;11.93;83.24
3654;BME280;70277;54.302;10.064;2024-02-16T06:34:52;100671.56;;;12.17;83.02
3654;BME280;70277;54.302;10.064;2024-02-16T06:37:19;100664.69;;;12.10;82.28
3654;BME280;70277;54.302;10.064;2024-02-16T06:39:46;100666.50;;;11.94;83.00
3654;BME280;70277;54.302;10.064;2024-02-16T06:42:13;100657.69;;;11.81;83.85
3654;BME280;70277;54.302;10.064;2024-02-16T06:44:40;100660.25;;;12.36;82.12
3654;BME280;70277;54.302;10.064;2024-02-16T06:47:06;100657.78;;;12.29;81.91
3654;BME280;70277;54.302;10.064;2024-02-16T06:49:33;100654.97;;;12.14;81.81
3654;BME280;70277;54.302;10.064;2024-02-16T06:51:59;100665.72;;;11.98;82.55
3654;BME280;70277;54.302;10.064;2024-02-16T06:54:26;100669.97;;;12.26;82.02
3654;BME280;70277;54.302;10.064;2024-02-16T06:56:53;100664.06;;;11.92;83.13
3654;BME280;70277;54.302;10.064;2024-02-16T06:59:20;100658.19;;;12.05;82.86
3654;BME280;70277;54.302;10.064;2024-02-16T07:01:46;100668.47;;;12.03;82.70
3654;BME280;70277;54.302;10.064;2024-02-16T07:04:13;100662.19;;;11.98;82.65
3654;BME280;70277;54.302;10.064;2024-02-16T07:06:39;100665.22;;;12.01;82.83
3654;BME280;70277;54.302;10.064;2024-02-16T07:09:07;100655.16;;;11.70;83.42
3654;BME280;70277;54.302;10.064;2024-02-16T07:11:34;100662.81;;;11.78;83.19
3654;BME280;70277;54.302;10.064;2024-02-16T07:14:01;100653.31;;;12.07;82.78
3654;BME280;70277;54.302;10.064;2024-02-16T07:16:28;100654.53;;;11.90;82.65
3654;BME280;70277;54.302;10.064;2024-02-16T07:18:55;100660.31;;;11.98;82.70
3654;BME280;70277;54.302;10.064;2024-02-16T07:21:21;100670.28;;;11.60;83.78
3654;BME280;70277;54.302;10.064;2024-02-16T07:23:49;100657.19;;;11.84;83.72
3654;BME280;70277;54.302;10.064;2024-02-16T07:26:17;100651.38;;;11.71;83.63
3654;BME280;70277;54.302;10.064;2024-02-16T07:28:44;100655.63;;;11.61;83.59
3654;BME280;70277;54.302;10.064;2024-02-16T07:31:11;100650.25;;;11.67;83.96
3654;BME280;70277;54.302;10.064;2024-02-16T07:33:37;100661.53;;;11.86;83.04
3654;BME280;70277;54.302;10.064;2024-02-16T07:36:04;100661.34;;;11.92;82.70
3654;BME280;70277;54.302;10.064;2024-02-16T07:38:31;100656.59;;;11.77;83.07
3654;BME280;70277;54.302;10.064;2024-02-16T07:40:58;100654.50;;;12.27;81.98
3654;BME280;70277;54.302;10.064;2024-02-16T07:43:26;100660.81;;;12.38;81.31
3654;BME280;70277;54.302;10.064;2024-02-16T07:45:53;100668.53;;;12.14;81.43
3654;BME280;70277;54.302;10.064;2024-02-16T07:48:21;100671.50;;;12.07;81.62
3654;BME280;70277;54.302;10.064;2024-02-16T07:50:48;100656.91;;;12.18;81.28
3654;BME280;70277;54.302;10.064;2024-02-16T07:53:16;100662.41;;;12.28;81.36
3654;BME280;70277;54.302;10.064;2024-02-16T07:55:43;100666.44;;;12.26;81.79
3654;BME280;70277;54.302;10.064;2024-02-16T07:58:10;100664.59;;;12.32;81.28
3654;BME280;70277;54.302;10.064;2024-02-16T08:00:36;100654.75;;;12.20;81.12
3654;BME280;70277;54.302;10.064;2024-02-16T08:03:03;100653.56;;;12.48;80.81
3654;BME280;70277;54.302;10.064;2024-02-16T08:05:29;100651.25;;;12.25;81.23
3654;BME280;70277;54.302;10.064;2024-02-16T08:07:56;100647.13;;;12.17;81.79
3654;BME280;70277;54.302;10.064;2024-02-16T08:10:23;100647.31;;;12.53;80.01
3654;BME280;70277;54.302;10.064;2024-02-16T08:12:51;100639.34;;;12.31;81.12
3654;BME280;70277;54.302;10.064;2024-02-16T08:15:18;100641.53;;;12.39;81.76
3654;BME280;70277;54.302;10.064;2024-02-16T08:17:52;100653.97;;;12.25;81.20
3654;BME280;70277;54.302;10.064;2024-02-16T08:20:19;100635.50;;;12.27;82.04
3654;BME280;70277;54.302;10.064;2024-02-16T08:22:47;100651.84;;;12.32;80.34
3654;BME280;70277;54.302;10.064;2024-02-16T08:25:14;100642.19;;;12.57;80.54
3654;BME280;70277;54.302;10.064;2024-02-16T08:27:40;100649.66;;;12.29;80.99
3654;BME280;70277;54.302;10.064;2024-02-16T08:30:07;100632.00;;;12.26;80.92
3654;BME280;70277;54.302;10.064;2024-02-16T08:32:35;100632.59;;;12.39;80.77
3654;BME280;70277;54.302;10.064;2024-02-16T08:35:02;100647.97;;;12.23;80.68
3654;BME280;70277;54.302;10.064;2024-02-16T08:37:29;100628.06;;;12.60;79.40
3654;BME280;70277;54.302;10.064;2024-02-16T08:39:56;100641.66;;;12.60;79.28
3654;BME280;70277;54.302;10.064;2024-02-16T08:42:23;100641.16;;;12.68;79.05
3654;BME280;70277;54.302;10.064;2024-02-16T08:44:50;100634.69;;;12.79;78.41
3654;BME280;70277;54.302;10.064;2024-02-16T08:47:17;100637.72;;;12.93;78.15
3654;BME280;70277;54.302;10.064;2024-02-16T08:49:43;100636.91;;;13.03;78.08
3654;BME280;70277;54.302;10.064;2024-02-16T08:52:10;100631.78;;;13.11;78.12
3654;BME280;70277;54.302;10.064;2024-02-16T08:54:36;100632.88;;;13.10;77.48
3654;BME280;70277;54.302;10.064;2024-02-16T08:57:03;100639.66;;;13.08;77.54
3654;BME280;70277;54.302;10.064;2024-02-16T08:59:30;100650.28;;;13.25;77.00
3654;BME280;70277;54.302;10.064;2024-02-16T09:01:56;100653.88;;;13.35;77.21
3654;BME280;70277;54.302;10.064;2024-02-16T09:04:24;100654.88;;;13.14;77.32
3654;BME280;70277;54.302;10.064;2024-02-16T09:06:51;100630.50;;;13.45;76.58
3654;BME280;70277;54.302;10.064;2024-02-16T09:09:18;100620.69;;;13.49;75.88
3654;BME280;70277;54.302;10.064;2024-02-16T09:11:45;100633.13;;;13.19;75.93
3654;BME280;70277;54.302;10.064;2024-02-16T09:14:11;100633.34;;;12.92;76.58
3654;BME280;70277;54.302;10.064;2024-02-16T09:16:38;100611.19;;;13.36;76.50
3654;BME280;70277;54.302;10.064;2024-02-16T09:19:06;100607.41;;;13.52;75.16
3654;BME280;70277;54.302;10.064;2024-02-16T09:21:33;100606.59;;;13.47;75.41
3654;BME280;70277;54.302;10.064;2024-02-16T09:24:00;100616.91;;;13.50;74.71
3654;BME280;70277;54.302;10.064;2024-02-16T09:26:28;100601.16;;;13.47;75.00
3654;BME280;70277;54.302;10.064;2024-02-16T09:29:00;100611.72;;;13.84;74.75
3654;BME280;70277;54.302;10.064;2024-02-16T09:31:26;100615.81;;;13.35;74.90
3654;BME280;70277;54.302;10.064;2024-02-16T09:33:53;100622.34;;;13.29;75.10
3654;BME280;70277;54.302;10.064;2024-02-16T09:36:20;100630.50;;;13.45;74.80
3654;BME280;70277;54.302;10.064;2024-02-16T09:38:48;100624.00;;;13.61;75.02
3654;BME280;70277;54.302;10.064;2024-02-16T09:41:14;100634.84;;;13.51;74.41
3654;BME280;70277;54.302;10.064;2024-02-16T09:43:42;100640.84;;;13.58;75.08
3654;BME280;70277;54.302;10.064;2024-02-16T09:46:09;100636.47;;;13.41;75.29
3654;BME280;70277;54.302;10.064;2024-02-16T09:48:39;100637.88;;;13.70;75.31
3654;BME280;70277;54.302;10.064;2024-02-16T09:51:07;100642.97;;;13.30;76.15
3654;BME280;70277;54.302;10.064;2024-02-16T09:53:34;100642.19;;;13.50;75.99
3654;BME280;70277;54.302;10.064;2024-02-16T09:56:01;100639.75;;;13.54;76.12
3654;BME280;70277;54.302;10.064;2024-02-16T09:58:28;100639.75;;;13.95;74.66
3654;BME280;70277;54.302;10.064;2024-02-16T10:00:55;100649.81;;;13.94;74.66
3654;BME280;70277;54.302;10.064;2024-02-16T10:03:30;100641.38;;;13.80;74.67
3654;BME280;70277;54.302;10.064;2024-02-16T10:06:06;100639.16;;;14.23;73.34
3654;BME280;70277;54.302;10.064;2024-02-16T10:08:53;100644.06;;;14.01;73.08
3654;BME280;70277;54.302;10.064;2024-02-16T10:11:22;100640.22;;;14.27;73.55
3654;BME280;70277;54.302;10.064;2024-02-16T10:14:00;100647.66;;;14.92;70.92
3654;BME280;70277;54.302;10.064;2024-02-16T10:16:29;100632.75;;;15.23;69.98
3654;BME280;70277;54.302;10.064;2024-02-16T10:18:57;100640.00;;;15.78;69.00
3654;BME280;70277;54.302;10.064;2024-02-16T10:21:30;100640.38;;;15.21;69.36
3654;BME280;70277;54.302;10.064;2024-02-16T10:24:00;100644.72;;;15.22;69.76
3654;BME280;70277;54.302;10.064;2024-02-16T10:26:28;100637.06;;;15.30;70.44
3654;BME280;70277;54.302;10.064;2024-02-16T10:28:56;100647.88;;;15.00;70.81
3654;BME280;70277;54.302;10.064;2024-02-16T10:31:30;100653.56;;;15.09;70.61
3654;BME280;70277;54.302;10.064;2024-02-16T10:34:01;100651.38;;;15.06;70.52
3654;BME280;70277;54.302;10.064;2024-02-16T10:36:33;100655.91;;;14.76;70.98
3654;BME280;70277;54.302;10.064;2024-02-16T10:39:02;100656.22;;;14.54;72.32
3654;BME280;70277;54.302;10.064;2024-02-16T10:41:37;100657.56;;;14.67;71.22
3654;BME280;70277;54.302;10.064;2024-02-16T10:44:04;100665.50;;;14.59;72.53
3654;BME280;70277;54.302;10.064;2024-02-16T10:46:32;100660.88;;;14.54;72.62
3654;BME280;70277;54.302;10.064;2024-02-16T10:48:59;100660.97;;;14.08;72.85
3654;BME280;70277;54.302;10.064;2024-02-16T10:51:45;100664.72;;;14.32;72.98
3654;BME280;70277;54.302;10.064;2024-02-16T10:54:17;100663.63;;;14.33;73.32
3654;BME280;70277;54.302;10.064;2024-02-16T10:56:45;100665.28;;;14.24;73.06
3654;BME280;70277;54.302;10.064;2024-02-16T10:59:12;100651.06;;;14.43;72.94
3654;BME280;70277;54.302;10.064;2024-02-16T11:01:42;100661.75;;;14.24;73.68
3654;BME280;70277;54.302;10.064;2024-02-16T11:04:17;100656.50;;;14.43;72.60
3654;BME280;70277;54.302;10.064;2024-02-16T11:06:49;100657.69;;;14.11;73.82
3654;BME280;70277;54.302;10.064;2024-02-16T11:09:34;100656.06;;;14.00;73.89
3654;BME280;70277;54.302;10.064;2024-02-16T11:12:03;100646.47;;;14.33;74.59
3654;BME280;70277;54.302;10.064;2024-02-16T11:14:46;100650.31;;;14.22;74.05
3654;BME280;70277;54.302;10.064;2024-02-16T11:17:15;100649.50;;;14.21;73.60
3654;BME280;70277;54.302;10.064;2024-02-16T11:19:43;100657.41;;;14.07;74.32
3654;BME280;70277;54.302;10.064;2024-02-16T11:22:11;100644.25;;;14.55;73.30
3654;BME280;70277;54.302;10.064;2024-02-16T11:24:45;100643.44;;;14.55;72.43
3654;BME280;70277;54.302;10.064;2024-02-16T11:27:13;100645.59;;;14.63;72.77
3654;BME280;70277;54.302;10.064;2024-02-16T11:29:41;100628.72;;;14.61;72.62
3654;BME280;70277;54.302;10.064;2024-02-16T11:32:08;100623.78;;;14.63;72.43
3654;BME280;70277;54.302;10.064;2024-02-16T11:34:34;100631.50;;;15.06;70.60
3654;BME280;70277;54.302;10.064;2024-02-16T11:37:02;100632.06;;;15.02;70.23
3654;BME280;70277;54.302;10.064;2024-02-16T11:39:29;100632.81;;;15.08;70.58
3654;BME280;70277;54.302;10.064;2024-02-16T11:42:09;100632.91;;;14.93;70.61
3654;BME280;70277;54.302;10.064;2024-02-16T11:44:50;100641.25;;;15.56;69.02
3654;BME280;70277;54.302;10.064;2024-02-16T11:47:25;100642.00;;;15.22;69.78
3654;BME280;70277;54.302;10.064;2024-02-16T11:50:06;100633.38;;;15.05;70.67
3654;BME280;70277;54.302;10.064;2024-02-16T11:52:34;100638.81;;;15.10;69.83
3654;BME280;70277;54.302;10.064;2024-02-16T11:55:01;100637.81;;;14.96;70.35
3654;BME280;70277;54.302;10.064;2024-02-16T11:57:31;100639.88;;;15.14;70.32
3654;BME280;70277;54.302;10.064;2024-02-16T11:59:58;100645.88;;;15.16;70.47
3654;BME280;70277;54.302;10.064;2024-02-16T12:02:25;100651.41;;;15.45;70.17
3654;BME280;70277;54.302;10.064;2024-02-16T12:04:58;100650.84;;;15.48;70.05
3654;BME280;70277;54.302;10.064;2024-02-16T12:07:30;100651.84;;;15.58;69.23
3654;BME280;70277;54.302;10.064;2024-02-16T12:09:59;100639.78;;;15.69;68.88
3654;BME280;70277;54.302;10.064;2024-02-16T12:12:26;100634.50;;;16.84;66.77
3654;BME280;70277;54.302;10.064;2024-02-16T12:14:54;100629.56;;;16.86;66.51
3654;BME280;70277;54.302;10.064;2024-02-16T12:17:21;100629.03;;;16.84;65.67
3654;BME280;70277;54.302;10.064;2024-02-16T12:19:50;100623.16;;;16.96;65.71
3654;BME280;70277;54.302;10.064;2024-02-16T12:22:18;100615.06;;;16.61;65.22
3654;BME280;70277;54.302;10.064;2024-02-16T12:24:46;100614.09;;;16.04;67.27
3654;BME280;70277;54.302;10.064;2024-02-16T12:27:13;100621.66;;;16.12;67.07
3654;BME280;70277;54.302;10.064;2024-02-16T12:29:41;100619.78;;;15.79;67.94
3654;BME280;70277;54.302;10.064;2024-02-16T12:32:08;100622.25;;;15.80;68.22
3654;BME280;70277;54.302;10.064;2024-02-16T12:34:37;100635.25;;;16.18;67.36
3654;BME280;70277;54.302;10.064;2024-02-16T12:37:05;100627.81;;;16.23;67.73
3654;BME280;70277;54.302;10.064;2024-02-16T12:39:34;100624.22;;;16.04;67.71
3654;BME280;70277;54.302;10.064;2024-02-16T12:42:01;100631.66;;;16.22;68.17
3654;BME280;70277;54.302;10.064;2024-02-16T12:44:28;100621.41;;;16.09;67.52
3654;BME280;70277;54.302;10.064;2024-02-16T12:46:54;100627.34;;;16.16;67.95
3654;BME280;70277;54.302;10.064;2024-02-16T12:49:21;100631.09;;;15.96;67.51
3654;BME280;70277;54.302;10.064;2024-02-16T12:51:49;100632.72;;;15.68;69.38
3654;BME280;70277;54.302;10.064;2024-02-16T12:54:17;100637.09;;;15.98;68.65